sensor_id;sensor_type;location;lat;lon;timestamp;P1;durP1;ratioP1;P2;durP2;ratioP2
74523;SDS011;63074;44.696;10.358;2023-07-16T00:00:09;3.55;;;1.90;;
74523;SDS011;63074;44.696;10.358;2023-07-16T00:02:36;3.28;;;1.50;;
74523;SDS011;63074;44.696;10.358;2023-07-16T00:05:02;3.60;;;2.03;;
74523;SDS011;63074;44.696;10.358;2023-07-16T00:07:29;3.63;;;1.60;;
74523;SDS011;63074;44.696;10.358;2023-07-16T00:09:55;7.10;;;1.95;;
74523;SDS011;63074;44.696;10.358;2023-07-16T00:12:21;2.13;;;1.15;;
74523;SDS011;63074;44.696;10.358;2023-07-16T00:14:48;4.30;;;1.80;;
74523;SDS011;63074;44.696;10.358;2023-07-16T00:19:40;2.67;;;1.40;;
74523;SDS011;63074;44.696;10.358;2023-07-16T00:22:06;3.63;;;1.50;;
74523;SDS011;63074;44.696;10.358;2023-07-16T00:24:32;3.67;;;1.63;;
74523;SDS011;63074;44.696;10.358;2023-07-16T00:26:58;3.85;;;1.60;;
74523;SDS011;63074;44.696;10.358;2023-07-16T00:29:25;2.97;;;1.73;;
74523;SDS011;63074;44.696;10.358;2023-07-16T00:31:51;5.65;;;1.67;;
74523;SDS011;63074;44.696;10.358;2023-07-16T00:34:17;4.55;;;1.75;;
74523;SDS011;63074;44.696;10.358;2023-07-16T00:36:43;2.30;;;1.80;;
74523;SDS011;63074;44.696;10.358;2023-07-16T00:39:10;3.90;;;1.58;;
74523;SDS011;63074;44.696;10.358;2023-07-16T00:41:36;5.05;;;2.60;;
74523;SDS011;63074;44.696;10.358;2023-07-16T00:44:03;4.32;;;1.95;;
74523;SDS011;63074;44.696;10.358;2023-07-16T00:46:29;4.15;;;1.70;;
74523;SDS011;63074;44.696;10.358;2023-07-16T00:48:55;4.40;;;1.60;;
74523;SDS011;63074;44.696;10.358;2023-07-16T00:51:22;3.53;;;1.85;;
74523;SDS011;63074;44.696;10.358;2023-07-16T00:53:50;4.25;;;1.63;;
74523;SDS011;63074;44.696;10.358;2023-07-16T00:56:16;4.88;;;1.95;;
74523;SDS011;63074;44.696;10.358;2023-07-16T00:58:43;4.60;;;1.80;;
74523;SDS011;63074;44.696;10.358;2023-07-16T01:01:09;3.50;;;1.90;;
74523;SDS011;63074;44.696;10.358;2023-07-16T01:03:36;6.18;;;1.70;;
74523;SDS011;63074;44.696;10.358;2023-07-16T01:11:06;5.20;;;1.80;;
74523;SDS011;63074;44.696;10.358;2023-07-16T01:13:34;3.55;;;1.88;;
74523;SDS011;63074;44.696;10.358;2023-07-16T01:16:01;3.95;;;2.00;;
74523;SDS011;63074;44.696;10.358;2023-07-16T01:18:27;3.97;;;2.17;;
74523;SDS011;63074;44.696;10.358;2023-07-16T01:20:53;3.13;;;1.60;;
74523;SDS011;63074;44.696;10.358;2023-07-16T01:26:18;2.60;;;1.50;;
74523;SDS011;63074;44.696;10.358;2023-07-16T01:28:44;3.53;;;2.00;;
74523;SDS011;63074;44.696;10.358;2023-07-16T01:31:38;3.25;;;1.75;;
74523;SDS011;63074;44.696;10.358;2023-07-16T01:34:05;2.47;;;1.75;;
74523;SDS011;63074;44.696;10.358;2023-07-16T01:36:33;5.88;;;2.03;;
74523;SDS011;63074;44.696;10.358;2023-07-16T01:39:01;3.72;;;1.90;;
74523;SDS011;63074;44.696;10.358;2023-07-16T01:41:27;3.90;;;1.60;;
74523;SDS011;63074;44.696;10.358;2023-07-16T01:43:53;3.03;;;1.50;;
74523;SDS011;63074;44.696;10.358;2023-07-16T01:46:19;4.47;;;1.90;;
74523;SDS011;63074;44.696;10.358;2023-07-16T01:48:45;2.72;;;1.48;;
74523;SDS011;63074;44.696;10.358;2023-07-16T01:51:12;3.22;;;1.90;;
74523;SDS011;63074;44.696;10.358;2023-07-16T01:53:38;3.28;;;1.40;;
74523;SDS011;63074;44.696;10.358;2023-07-16T01:56:04;2.70;;;1.65;;
74523;SDS011;63074;44.696;10.358;2023-07-16T01:58:30;2.88;;;1.45;;
74523;SDS011;63074;44.696;10.358;2023-07-16T02:00:57;3.22;;;1.48;;
74523;SDS011;63074;44.696;10.358;2023-07-16T02:03:23;5.32;;;1.45;;
74523;SDS011;63074;44.696;10.358;2023-07-16T02:05:49;3.50;;;1.70;;
74523;SDS011;63074;44.696;10.358;2023-07-16T02:08:16;3.03;;;1.60;;
74523;SDS011;63074;44.696;10.358;2023-07-16T02:10:43;5.28;;;1.73;;
74523;SDS011;63074;44.696;10.358;2023-07-16T02:13:09;3.47;;;2.00;;
74523;SDS011;63074;44.696;10.358;2023-07-16T02:15:35;3.45;;;1.40;;
74523;SDS011;63074;44.696;10.358;2023-07-16T02:18:02;3.35;;;1.85;;
74523;SDS011;63074;44.696;10.358;2023-07-16T02:20:29;4.57;;;1.60;;
74523;SDS011;63074;44.696;10.358;2023-07-16T02:22:56;5.28;;;2.55;;
74523;SDS011;63074;44.696;10.358;2023-07-16T02:25:23;4.13;;;2.08;;
74523;SDS011;63074;44.696;10.358;2023-07-16T02:27:50;3.70;;;1.73;;
74523;SDS011;63074;44.696;10.358;2023-07-16T02:30:17;3.95;;;1.90;;
74523;SDS011;63074;44.696;10.358;2023-07-16T02:32:43;4.25;;;1.77;;
74523;SDS011;63074;44.696;10.358;2023-07-16T02:35:10;4.10;;;1.88;;
74523;SDS011;63074;44.696;10.358;2023-07-16T02:37:36;5.35;;;1.88;;
74523;SDS011;63074;44.696;10.358;2023-07-16T02:40:02;3.90;;;1.98;;
74523;SDS011;63074;44.696;10.358;2023-07-16T02:42:31;3.38;;;1.58;;
74523;SDS011;63074;44.696;10.358;2023-07-16T02:44:57;4.50;;;2.15;;
74523;SDS011;63074;44.696;10.358;2023-07-16T02:47:23;4.65;;;1.95;;
74523;SDS011;63074;44.696;10.358;2023-07-16T02:49:53;4.47;;;2.35;;
74523;SDS011;63074;44.696;10.358;2023-07-16T02:52:19;4.65;;;2.10;;
74523;SDS011;63074;44.696;10.358;2023-07-16T02:54:46;3.90;;;2.08;;
74523;SDS011;63074;44.696;10.358;2023-07-16T02:57:12;6.70;;;2.17;;
74523;SDS011;63074;44.696;10.358;2023-07-16T02:59:38;4.93;;;2.72;;
74523;SDS011;63074;44.696;10.358;2023-07-16T03:02:04;5.45;;;2.33;;
74523;SDS011;63074;44.696;10.358;2023-07-16T03:04:30;3.60;;;2.30;;
74523;SDS011;63074;44.696;10.358;2023-07-16T03:06:56;4.55;;;2.47;;
74523;SDS011;63074;44.696;10.358;2023-07-16T03:09:23;5.13;;;2.28;;
74523;SDS011;63074;44.696;10.358;2023-07-16T03:11:49;3.90;;;2.00;;
74523;SDS011;63074;44.696;10.358;2023-07-16T03:14:15;3.92;;;2.05;;
74523;SDS011;63074;44.696;10.358;2023-07-16T03:16:41;4.00;;;2.00;;
74523;SDS011;63074;44.696;10.358;2023-07-16T03:19:07;5.43;;;2.22;;
74523;SDS011;63074;44.696;10.358;2023-07-16T03:21:33;4.35;;;1.58;;
74523;SDS011;63074;44.696;10.358;2023-07-16T03:24:00;4.53;;;1.70;;
74523;SDS011;63074;44.696;10.358;2023-07-16T03:26:26;3.85;;;2.15;;
74523;SDS011;63074;44.696;10.358;2023-07-16T03:28:52;4.90;;;1.98;;
74523;SDS011;63074;44.696;10.358;2023-07-16T03:31:19;4.35;;;1.95;;
74523;SDS011;63074;44.696;10.358;2023-07-16T03:33:45;5.35;;;2.40;;
74523;SDS011;63074;44.696;10.358;2023-07-16T03:36:12;3.88;;;1.88;;
74523;SDS011;63074;44.696;10.358;2023-07-16T03:38:38;4.53;;;2.03;;
74523;SDS011;63074;44.696;10.358;2023-07-16T03:41:04;6.90;;;2.25;;
74523;SDS011;63074;44.696;10.358;2023-07-16T03:43:30;4.55;;;1.80;;
74523;SDS011;63074;44.696;10.358;2023-07-16T03:45:56;4.78;;;2.28;;
74523;SDS011;63074;44.696;10.358;2023-07-16T03:48:22;4.57;;;2.40;;
74523;SDS011;63074;44.696;10.358;2023-07-16T03:50:49;3.83;;;2.42;;
74523;SDS011;63074;44.696;10.358;2023-07-16T03:55:41;5.32;;;2.25;;
74523;SDS011;63074;44.696;10.358;2023-07-16T03:58:07;5.00;;;2.05;;
74523;SDS011;63074;44.696;10.358;2023-07-16T04:00:33;5.13;;;2.10;;
74523;SDS011;63074;44.696;10.358;2023-07-16T04:02:59;4.20;;;2.55;;
74523;SDS011;63074;44.696;10.358;2023-07-16T04:05:26;5.90;;;2.88;;
74523;SDS011;63074;44.696;10.358;2023-07-16T04:07:52;4.82;;;2.80;;
74523;SDS011;63074;44.696;10.358;2023-07-16T04:10:18;5.88;;;3.15;;
74523;SDS011;63074;44.696;10.358;2023-07-16T04:12:45;4.97;;;2.35;;
74523;SDS011;63074;44.696;10.358;2023-07-16T04:15:11;6.38;;;2.58;;
74523;SDS011;63074;44.696;10.358;2023-07-16T04:17:38;4.63;;;2.70;;
74523;SDS011;63074;44.696;10.358;2023-07-16T04:20:04;4.05;;;3.22;;
74523;SDS011;63074;44.696;10.358;2023-07-16T04:22:32;5.35;;;3.10;;
74523;SDS011;63074;44.696;10.358;2023-07-16T04:25:01;5.70;;;2.70;;
74523;SDS011;63074;44.696;10.358;2023-07-16T04:27:28;7.47;;;2.40;;
74523;SDS011;63074;44.696;10.358;2023-07-16T04:29:55;4.65;;;2.97;;
74523;SDS011;63074;44.696;10.358;2023-07-16T04:32:21;4.57;;;2.30;;
74523;SDS011;63074;44.696;10.358;2023-07-16T04:34:47;4.55;;;3.03;;
74523;SDS011;63074;44.696;10.358;2023-07-16T04:39:39;6.32;;;2.53;;
74523;SDS011;63074;44.696;10.358;2023-07-16T04:42:05;5.63;;;2.90;;
74523;SDS011;63074;44.696;10.358;2023-07-16T04:44:32;5.63;;;2.70;;
74523;SDS011;63074;44.696;10.358;2023-07-16T04:46:58;5.50;;;2.95;;
74523;SDS011;63074;44.696;10.358;2023-07-16T04:49:24;4.15;;;2.55;;
74523;SDS011;63074;44.696;10.358;2023-07-16T04:51:50;3.47;;;2.47;;
74523;SDS011;63074;44.696;10.358;2023-07-16T04:54:16;3.92;;;2.33;;
74523;SDS011;63074;44.696;10.358;2023-07-16T04:56:43;5.75;;;2.55;;
74523;SDS011;63074;44.696;10.358;2023-07-16T04:59:09;6.15;;;2.75;;
74523;SDS011;63074;44.696;10.358;2023-07-16T05:01:35;7.60;;;2.70;;
74523;SDS011;63074;44.696;10.358;2023-07-16T05:04:01;4.78;;;2.90;;
74523;SDS011;63074;44.696;10.358;2023-07-16T05:06:27;6.38;;;2.70;;
74523;SDS011;63074;44.696;10.358;2023-07-16T05:08:54;6.88;;;3.03;;
74523;SDS011;63074;44.696;10.358;2023-07-16T05:11:20;5.47;;;3.00;;
74523;SDS011;63074;44.696;10.358;2023-07-16T05:13:46;7.18;;;3.35;;
74523;SDS011;63074;44.696;10.358;2023-07-16T05:16:12;6.70;;;3.38;;
74523;SDS011;63074;44.696;10.358;2023-07-16T05:18:38;5.53;;;2.83;;
74523;SDS011;63074;44.696;10.358;2023-07-16T05:21:04;8.90;;;3.55;;
74523;SDS011;63074;44.696;10.358;2023-07-16T05:23:31;7.45;;;3.67;;
74523;SDS011;63074;44.696;10.358;2023-07-16T05:25:57;5.30;;;3.38;;
74523;SDS011;63074;44.696;10.358;2023-07-16T05:28:23;5.97;;;3.60;;
74523;SDS011;63074;44.696;10.358;2023-07-16T05:30:59;6.63;;;4.10;;
74523;SDS011;63074;44.696;10.358;2023-07-16T05:33:26;5.75;;;3.45;;
74523;SDS011;63074;44.696;10.358;2023-07-16T05:35:52;6.03;;;3.90;;
74523;SDS011;63074;44.696;10.358;2023-07-16T05:38:18;5.30;;;2.80;;
74523;SDS011;63074;44.696;10.358;2023-07-16T05:40:45;6.25;;;2.95;;
74523;SDS011;63074;44.696;10.358;2023-07-16T05:43:11;5.32;;;3.08;;
74523;SDS011;63074;44.696;10.358;2023-07-16T05:45:38;5.18;;;2.92;;
74523;SDS011;63074;44.696;10.358;2023-07-16T05:48:04;4.00;;;2.10;;
74523;SDS011;63074;44.696;10.358;2023-07-16T05:50:31;4.38;;;2.47;;
74523;SDS011;63074;44.696;10.358;2023-07-16T05:52:57;4.55;;;2.38;;
74523;SDS011;63074;44.696;10.358;2023-07-16T05:55:23;6.68;;;2.67;;
74523;SDS011;63074;44.696;10.358;2023-07-16T05:57:50;4.07;;;2.50;;
74523;SDS011;63074;44.696;10.358;2023-07-16T06:00:16;3.65;;;2.38;;
74523;SDS011;63074;44.696;10.358;2023-07-16T06:02:42;3.92;;;1.92;;
74523;SDS011;63074;44.696;10.358;2023-07-16T06:05:09;4.47;;;2.47;;
74523;SDS011;63074;44.696;10.358;2023-07-16T06:07:35;5.65;;;2.42;;
74523;SDS011;63074;44.696;10.358;2023-07-16T06:10:02;5.75;;;1.85;;
74523;SDS011;63074;44.696;10.358;2023-07-16T06:12:28;4.85;;;2.38;;
74523;SDS011;63074;44.696;10.358;2023-07-16T06:14:54;4.70;;;2.40;;
74523;SDS011;63074;44.696;10.358;2023-07-16T06:17:20;3.00;;;1.88;;
74523;SDS011;63074;44.696;10.358;2023-07-16T06:19:47;4.40;;;2.05;;
74523;SDS011;63074;44.696;10.358;2023-07-16T06:24:41;4.75;;;2.28;;
74523;SDS011;63074;44.696;10.358;2023-07-16T06:27:07;5.68;;;2.35;;
74523;SDS011;63074;44.696;10.358;2023-07-16T06:29:33;5.45;;;2.15;;
74523;SDS011;63074;44.696;10.358;2023-07-16T06:31:59;3.65;;;2.78;;
74523;SDS011;63074;44.696;10.358;2023-07-16T06:34:26;4.28;;;2.42;;
74523;SDS011;63074;44.696;10.358;2023-07-16T06:36:52;4.88;;;2.50;;
74523;SDS011;63074;44.696;10.358;2023-07-16T06:39:18;7.68;;;2.58;;
74523;SDS011;63074;44.696;10.358;2023-07-16T06:41:45;6.63;;;2.55;;
74523;SDS011;63074;44.696;10.358;2023-07-16T06:44:11;5.60;;;2.97;;
74523;SDS011;63074;44.696;10.358;2023-07-16T06:46:37;4.43;;;2.72;;
74523;SDS011;63074;44.696;10.358;2023-07-16T06:49:04;4.18;;;2.50;;
74523;SDS011;63074;44.696;10.358;2023-07-16T06:51:31;5.22;;;2.65;;
74523;SDS011;63074;44.696;10.358;2023-07-16T06:53:58;5.25;;;2.70;;
74523;SDS011;63074;44.696;10.358;2023-07-16T06:56:24;5.15;;;2.42;;
74523;SDS011;63074;44.696;10.358;2023-07-16T06:58:51;3.65;;;2.00;;
74523;SDS011;63074;44.696;10.358;2023-07-16T07:01:17;4.53;;;2.72;;
74523;SDS011;63074;44.696;10.358;2023-07-16T07:03:43;7.30;;;3.38;;
74523;SDS011;63074;44.696;10.358;2023-07-16T07:06:09;3.38;;;2.33;;
74523;SDS011;63074;44.696;10.358;2023-07-16T07:08:36;4.38;;;2.35;;
74523;SDS011;63074;44.696;10.358;2023-07-16T07:11:03;4.10;;;2.00;;
74523;SDS011;63074;44.696;10.358;2023-07-16T07:13:29;4.53;;;2.38;;
74523;SDS011;63074;44.696;10.358;2023-07-16T07:15:56;4.75;;;2.53;;
74523;SDS011;63074;44.696;10.358;2023-07-16T07:18:22;5.43;;;2.50;;
74523;SDS011;63074;44.696;10.358;2023-07-16T07:20:48;4.60;;;3.00;;
74523;SDS011;63074;44.696;10.358;2023-07-16T07:35:34;7.95;;;3.88;;
74523;SDS011;63074;44.696;10.358;2023-07-16T07:38:01;5.03;;;3.35;;
74523;SDS011;63074;44.696;10.358;2023-07-16T07:40:27;5.50;;;3.55;;
74523;SDS011;63074;44.696;10.358;2023-07-16T07:42:53;6.60;;;4.07;;
74523;SDS011;63074;44.696;10.358;2023-07-16T07:45:19;5.80;;;3.63;;
74523;SDS011;63074;44.696;10.358;2023-07-16T07:47:46;9.23;;;3.97;;
74523;SDS011;63074;44.696;10.358;2023-07-16T07:50:12;7.85;;;4.05;;
74523;SDS011;63074;44.696;10.358;2023-07-16T07:52:38;6.30;;;3.95;;
74523;SDS011;63074;44.696;10.358;2023-07-16T07:55:05;6.82;;;3.55;;
74523;SDS011;63074;44.696;10.358;2023-07-16T07:57:31;7.18;;;3.83;;
74523;SDS011;63074;44.696;10.358;2023-07-16T07:59:57;7.03;;;3.70;;
74523;SDS011;63074;44.696;10.358;2023-07-16T08:02:24;6.15;;;4.00;;
74523;SDS011;63074;44.696;10.358;2023-07-16T08:04:51;8.93;;;4.05;;
74523;SDS011;63074;44.696;10.358;2023-07-16T08:07:18;5.97;;;4.13;;
74523;SDS011;63074;44.696;10.358;2023-07-16T08:09:45;7.20;;;3.83;;
74523;SDS011;63074;44.696;10.358;2023-07-16T08:12:12;6.28;;;3.72;;
74523;SDS011;63074;44.696;10.358;2023-07-16T08:14:39;6.97;;;4.35;;
74523;SDS011;63074;44.696;10.358;2023-07-16T08:17:06;7.13;;;4.20;;
74523;SDS011;63074;44.696;10.358;2023-07-16T08:19:33;5.32;;;4.07;;
74523;SDS011;63074;44.696;10.358;2023-07-16T08:21:59;8.13;;;4.63;;
74523;SDS011;63074;44.696;10.358;2023-07-16T08:24:25;9.93;;;3.75;;
74523;SDS011;63074;44.696;10.358;2023-07-16T08:26:52;7.03;;;4.38;;
74523;SDS011;63074;44.696;10.358;2023-07-16T08:29:18;5.90;;;4.10;;
74523;SDS011;63074;44.696;10.358;2023-07-16T08:31:44;6.78;;;3.92;;
74523;SDS011;63074;44.696;10.358;2023-07-16T08:34:10;6.32;;;3.95;;
74523;SDS011;63074;44.696;10.358;2023-07-16T08:36:36;5.03;;;3.92;;
74523;SDS011;63074;44.696;10.358;2023-07-16T08:39:03;6.38;;;4.07;;
74523;SDS011;63074;44.696;10.358;2023-07-16T08:41:30;6.25;;;4.22;;
74523;SDS011;63074;44.696;10.358;2023-07-16T08:43:57;8.40;;;3.83;;
74523;SDS011;63074;44.696;10.358;2023-07-16T08:46:23;7.32;;;4.13;;
74523;SDS011;63074;44.696;10.358;2023-07-16T08:48:50;6.72;;;4.13;;
74523;SDS011;63074;44.696;10.358;2023-07-16T08:51:17;10.63;;;4.45;;
74523;SDS011;63074;44.696;10.358;2023-07-16T08:53:45;9.73;;;4.00;;
74523;SDS011;63074;44.696;10.358;2023-07-16T08:56:12;5.82;;;3.50;;
74523;SDS011;63074;44.696;10.358;2023-07-16T08:58:39;5.72;;;3.95;;
74523;SDS011;63074;44.696;10.358;2023-07-16T09:01:08;6.20;;;3.88;;
74523;SDS011;63074;44.696;10.358;2023-07-16T09:03:35;7.78;;;3.83;;
74523;SDS011;63074;44.696;10.358;2023-07-16T09:06:02;7.05;;;4.15;;
74523;SDS011;63074;44.696;10.358;2023-07-16T09:08:29;6.65;;;4.03;;
74523;SDS011;63074;44.696;10.358;2023-07-16T09:10:56;6.30;;;3.95;;
74523;SDS011;63074;44.696;10.358;2023-07-16T09:13:23;5.20;;;3.42;;
74523;SDS011;63074;44.696;10.358;2023-07-16T09:15:56;5.40;;;3.38;;
74523;SDS011;63074;44.696;10.358;2023-07-16T09:18:27;6.15;;;4.35;;
74523;SDS011;63074;44.696;10.358;2023-07-16T09:20:59;6.40;;;4.07;;
74523;SDS011;63074;44.696;10.358;2023-07-16T09:23:29;4.63;;;3.50;;
74523;SDS011;63074;44.696;10.358;2023-07-16T09:25:56;7.90;;;3.80;;
74523;SDS011;63074;44.696;10.358;2023-07-16T09:28:22;6.68;;;4.05;;
74523;SDS011;63074;44.696;10.358;2023-07-16T09:30:49;7.43;;;4.25;;
74523;SDS011;63074;44.696;10.358;2023-07-16T09:33:18;4.35;;;3.30;;
74523;SDS011;63074;44.696;10.358;2023-07-16T09:35:49;7.82;;;3.72;;
74523;SDS011;63074;44.696;10.358;2023-07-16T09:40:43;7.05;;;4.47;;
74523;SDS011;63074;44.696;10.358;2023-07-16T09:43:10;6.03;;;4.05;;
74523;SDS011;63074;44.696;10.358;2023-07-16T09:45:37;8.23;;;4.10;;
74523;SDS011;63074;44.696;10.358;2023-07-16T09:48:04;5.43;;;3.08;;
74523;SDS011;63074;44.696;10.358;2023-07-16T09:50:33;5.43;;;3.72;;
74523;SDS011;63074;44.696;10.358;2023-07-16T09:53:01;6.68;;;4.13;;
74523;SDS011;63074;44.696;10.358;2023-07-16T09:55:32;7.03;;;3.60;;
74523;SDS011;63074;44.696;10.358;2023-07-16T09:58:00;6.95;;;4.00;;
74523;SDS011;63074;44.696;10.358;2023-07-16T10:00:31;7.80;;;3.83;;
74523;SDS011;63074;44.696;10.358;2023-07-16T10:02:59;6.72;;;3.83;;
74523;SDS011;63074;44.696;10.358;2023-07-16T10:05:27;6.80;;;3.53;;
74523;SDS011;63074;44.696;10.358;2023-07-16T10:07:58;10.48;;;3.72;;
74523;SDS011;63074;44.696;10.358;2023-07-16T10:10:26;7.05;;;3.55;;
74523;SDS011;63074;44.696;10.358;2023-07-16T10:13:04;7.10;;;4.18;;
74523;SDS011;63074;44.696;10.358;2023-07-16T10:15:31;6.82;;;4.03;;
74523;SDS011;63074;44.696;10.358;2023-07-16T10:17:57;6.75;;;4.30;;
74523;SDS011;63074;44.696;10.358;2023-07-16T10:20:36;5.07;;;3.58;;
74523;SDS011;63074;44.696;10.358;2023-07-16T10:23:11;6.85;;;3.80;;
74523;SDS011;63074;44.696;10.358;2023-07-16T10:25:38;6.22;;;3.85;;
74523;SDS011;63074;44.696;10.358;2023-07-16T10:28:05;7.78;;;3.45;;
74523;SDS011;63074;44.696;10.358;2023-07-16T10:30:32;4.13;;;3.50;;
74523;SDS011;63074;44.696;10.358;2023-07-16T10:33:02;6.85;;;3.67;;
74523;SDS011;63074;44.696;10.358;2023-07-16T10:35:35;5.40;;;3.60;;
74523;SDS011;63074;44.696;10.358;2023-07-16T10:38:06;7.50;;;3.75;;
74523;SDS011;63074;44.696;10.358;2023-07-16T10:40:33;6.90;;;3.83;;
74523;SDS011;63074;44.696;10.358;2023-07-16T10:43:09;5.70;;;4.00;;
74523;SDS011;63074;44.696;10.358;2023-07-16T10:45:36;9.70;;;5.10;;
74523;SDS011;63074;44.696;10.358;2023-07-16T10:48:02;7.47;;;4.80;;
74523;SDS011;63074;44.696;10.358;2023-07-16T10:50:31;6.93;;;4.95;;
74523;SDS011;63074;44.696;10.358;2023-07-16T10:53:02;4.57;;;3.70;;
74523;SDS011;63074;44.696;10.358;2023-07-16T10:55:28;10.05;;;4.13;;
74523;SDS011;63074;44.696;10.358;2023-07-16T10:57:56;5.43;;;3.17;;
74523;SDS011;63074;44.696;10.358;2023-07-16T11:00:23;6.50;;;3.95;;
74523;SDS011;63074;44.696;10.358;2023-07-16T11:02:50;7.38;;;3.50;;
74523;SDS011;63074;44.696;10.358;2023-07-16T11:05:17;6.75;;;4.40;;
74523;SDS011;63074;44.696;10.358;2023-07-16T11:07:44;7.13;;;3.92;;
74523;SDS011;63074;44.696;10.358;2023-07-16T11:12:41;7.30;;;3.85;;
74523;SDS011;63074;44.696;10.358;2023-07-16T11:15:07;5.80;;;3.33;;
74523;SDS011;63074;44.696;10.358;2023-07-16T11:17:37;5.10;;;3.65;;
74523;SDS011;63074;44.696;10.358;2023-07-16T11:20:07;3.97;;;3.15;;
74523;SDS011;63074;44.696;10.358;2023-07-16T11:22:36;5.38;;;3.13;;
74523;SDS011;63074;44.696;10.358;2023-07-16T11:27:36;8.02;;;3.50;;
74523;SDS011;63074;44.696;10.358;2023-07-16T11:30:05;4.57;;;3.83;;
74523;SDS011;63074;44.696;10.358;2023-07-16T11:32:32;5.85;;;3.20;;
74523;SDS011;63074;44.696;10.358;2023-07-16T11:35:01;7.28;;;3.72;;
74523;SDS011;63074;44.696;10.358;2023-07-16T11:37:29;4.93;;;2.90;;
74523;SDS011;63074;44.696;10.358;2023-07-16T11:40:03;6.05;;;3.67;;
74523;SDS011;63074;44.696;10.358;2023-07-16T11:42:32;6.82;;;3.40;;
74523;SDS011;63074;44.696;10.358;2023-07-16T11:45:00;6.70;;;3.50;;
74523;SDS011;63074;44.696;10.358;2023-07-16T11:47:27;4.90;;;3.10;;
74523;SDS011;63074;44.696;10.358;2023-07-16T11:49:54;6.82;;;3.20;;
74523;SDS011;63074;44.696;10.358;2023-07-16T11:52:21;7.75;;;3.13;;
74523;SDS011;63074;44.696;10.358;2023-07-16T11:54:52;5.75;;;3.38;;
74523;SDS011;63074;44.696;10.358;2023-07-16T11:57:18;4.68;;;3.03;;
74523;SDS011;63074;44.696;10.358;2023-07-16T11:59:45;5.93;;;3.30;;
74523;SDS011;63074;44.696;10.358;2023-07-16T12:02:11;5.60;;;3.38;;
74523;SDS011;63074;44.696;10.358;2023-07-16T12:04:38;5.28;;;3.08;;
74523;SDS011;63074;44.696;10.358;2023-07-16T12:07:04;6.53;;;3.42;;
74523;SDS011;63074;44.696;10.358;2023-07-16T12:09:30;6.00;;;3.40;;
74523;SDS011;63074;44.696;10.358;2023-07-16T12:11:57;7.28;;;3.45;;
74523;SDS011;63074;44.696;10.358;2023-07-16T12:14:23;4.97;;;3.67;;
74523;SDS011;63074;44.696;10.358;2023-07-16T12:16:49;4.45;;;3.00;;
74523;SDS011;63074;44.696;10.358;2023-07-16T12:21:41;6.57;;;3.15;;
74523;SDS011;63074;44.696;10.358;2023-07-16T12:24:07;4.82;;;3.65;;
74523;SDS011;63074;44.696;10.358;2023-07-16T12:26:34;4.95;;;3.00;;
74523;SDS011;63074;44.696;10.358;2023-07-16T12:29:00;6.32;;;3.30;;
74523;SDS011;63074;44.696;10.358;2023-07-16T12:31:30;5.43;;;3.47;;
74523;SDS011;63074;44.696;10.358;2023-07-16T12:33:57;7.88;;;3.40;;
74523;SDS011;63074;44.696;10.358;2023-07-16T12:36:24;7.43;;;3.38;;
74523;SDS011;63074;44.696;10.358;2023-07-16T12:38:50;4.40;;;2.65;;
74523;SDS011;63074;44.696;10.358;2023-07-16T12:41:16;4.28;;;3.15;;
74523;SDS011;63074;44.696;10.358;2023-07-16T12:43:42;5.30;;;3.15;;
74523;SDS011;63074;44.696;10.358;2023-07-16T12:46:09;4.90;;;3.38;;
74523;SDS011;63074;44.696;10.358;2023-07-16T12:48:35;6.13;;;3.15;;
74523;SDS011;63074;44.696;10.358;2023-07-16T12:51:01;4.78;;;2.97;;
74523;SDS011;63074;44.696;10.358;2023-07-16T12:53:28;4.90;;;3.10;;
74523;SDS011;63074;44.696;10.358;2023-07-16T12:55:54;5.90;;;3.08;;
74523;SDS011;63074;44.696;10.358;2023-07-16T12:58:21;5.82;;;3.15;;
74523;SDS011;63074;44.696;10.358;2023-07-16T13:00:47;8.75;;;3.47;;
74523;SDS011;63074;44.696;10.358;2023-07-16T13:03:14;5.10;;;3.38;;
74523;SDS011;63074;44.696;10.358;2023-07-16T13:05:43;6.20;;;3.00;;
74523;SDS011;63074;44.696;10.358;2023-07-16T13:08:10;5.22;;;3.63;;
74523;SDS011;63074;44.696;10.358;2023-07-16T13:10:36;4.10;;;3.67;;
74523;SDS011;63074;44.696;10.358;2023-07-16T13:13:02;5.10;;;3.38;;
74523;SDS011;63074;44.696;10.358;2023-07-16T13:15:29;4.85;;;3.33;;
74523;SDS011;63074;44.696;10.358;2023-07-16T13:17:55;5.10;;;3.20;;
74523;SDS011;63074;44.696;10.358;2023-07-16T13:20:22;4.60;;;2.80;;
74523;SDS011;63074;44.696;10.358;2023-07-16T13:22:48;5.18;;;3.40;;
74523;SDS011;63074;44.696;10.358;2023-07-16T13:27:41;5.32;;;3.85;;
74523;SDS011;63074;44.696;10.358;2023-07-16T13:30:07;5.70;;;2.83;;
74523;SDS011;63074;44.696;10.358;2023-07-16T13:32:34;4.03;;;3.22;;
74523;SDS011;63074;44.696;10.358;2023-07-16T13:35:00;5.43;;;2.83;;
74523;SDS011;63074;44.696;10.358;2023-07-16T13:37:27;4.82;;;3.22;;
74523;SDS011;63074;44.696;10.358;2023-07-16T13:39:54;5.28;;;3.60;;
74523;SDS011;63074;44.696;10.358;2023-07-16T13:42:20;4.57;;;3.00;;
74523;SDS011;63074;44.696;10.358;2023-07-16T13:44:46;4.72;;;3.70;;
74523;SDS011;63074;44.696;10.358;2023-07-16T13:47:12;4.70;;;2.92;;
74523;SDS011;63074;44.696;10.358;2023-07-16T13:49:38;5.32;;;3.15;;
74523;SDS011;63074;44.696;10.358;2023-07-16T13:52:05;4.45;;;2.80;;
74523;SDS011;63074;44.696;10.358;2023-07-16T13:54:32;6.05;;;2.88;;
74523;SDS011;63074;44.696;10.358;2023-07-16T13:56:58;5.03;;;3.20;;
74523;SDS011;63074;44.696;10.358;2023-07-16T13:59:24;5.88;;;3.63;;
74523;SDS011;63074;44.696;10.358;2023-07-16T14:01:58;6.50;;;3.78;;
74523;SDS011;63074;44.696;10.358;2023-07-16T14:04:26;6.45;;;3.28;;
74523;SDS011;63074;44.696;10.358;2023-07-16T14:06:53;4.88;;;3.15;;
74523;SDS011;63074;44.696;10.358;2023-07-16T14:09:20;4.80;;;3.00;;
74523;SDS011;63074;44.696;10.358;2023-07-16T14:11:46;6.28;;;3.88;;
74523;SDS011;63074;44.696;10.358;2023-07-16T14:16:40;4.10;;;2.83;;
74523;SDS011;63074;44.696;10.358;2023-07-16T14:19:06;5.97;;;3.22;;
74523;SDS011;63074;44.696;10.358;2023-07-16T14:21:33;6.05;;;3.47;;
74523;SDS011;63074;44.696;10.358;2023-07-16T14:23:59;5.25;;;3.58;;
74523;SDS011;63074;44.696;10.358;2023-07-16T14:26:25;6.07;;;3.25;;
74523;SDS011;63074;44.696;10.358;2023-07-16T14:28:51;3.83;;;3.05;;
74523;SDS011;63074;44.696;10.358;2023-07-16T14:31:17;4.40;;;3.05;;
74523;SDS011;63074;44.696;10.358;2023-07-16T14:33:44;4.53;;;3.42;;
74523;SDS011;63074;44.696;10.358;2023-07-16T14:36:10;6.28;;;3.92;;
74523;SDS011;63074;44.696;10.358;2023-07-16T14:38:36;6.53;;;3.80;;
74523;SDS011;63074;44.696;10.358;2023-07-16T14:41:02;4.45;;;3.78;;
74523;SDS011;63074;44.696;10.358;2023-07-16T14:43:29;5.57;;;3.40;;
74523;SDS011;63074;44.696;10.358;2023-07-16T14:45:56;5.60;;;2.88;;
74523;SDS011;63074;44.696;10.358;2023-07-16T14:48:22;6.25;;;3.28;;
74523;SDS011;63074;44.696;10.358;2023-07-16T14:50:49;5.75;;;3.20;;
74523;SDS011;63074;44.696;10.358;2023-07-16T14:55:46;5.15;;;3.22;;
74523;SDS011;63074;44.696;10.358;2023-07-16T14:58:13;4.63;;;3.33;;
74523;SDS011;63074;44.696;10.358;2023-07-16T15:00:39;5.93;;;3.30;;
74523;SDS011;63074;44.696;10.358;2023-07-16T15:03:06;6.05;;;3.25;;
74523;SDS011;63074;44.696;10.358;2023-07-16T15:05:32;8.20;;;3.60;;
74523;SDS011;63074;44.696;10.358;2023-07-16T15:07:58;8.18;;;3.80;;
74523;SDS011;63074;44.696;10.358;2023-07-16T15:10:24;5.47;;;3.60;;
74523;SDS011;63074;44.696;10.358;2023-07-16T15:12:50;5.75;;;3.58;;
74523;SDS011;63074;44.696;10.358;2023-07-16T15:15:17;5.95;;;3.40;;
74523;SDS011;63074;44.696;10.358;2023-07-16T15:17:43;5.25;;;3.28;;